Time;durP1;ratioP1;P1;durP2;ratioP2;P2;SDS_P1;SDS_P2;PMS_P1;PMS_P2;Temp;Humidity;BMP_temperature;BMP_pressure;BME280_temperature;BME280_humidity;BME280_pressure;Samples;Min_cycle;Max_cycle;Signal;HPM_P1;HPM_P2
2022/03/01 00:00:41;;;;;;;29.63;24.13;;;;;;;0.46;83.89;103142.50;5054316;28;20438;-45
2022/03/01 00:03:09;;;;;;;30.50;24.30;;;;;;;0.47;84.72;103133.72;5054509;28;20470;-48
2022/03/01 00:05:37;;;;;;;26.40;23.77;;;;;;;0.47;83.88;103139.81;5054120;28;20439;-45
2022/03/01 00:08:05;;;;;;;28.20;24.67;;;;;;;0.47;83.82;103138.97;5053907;28;20443;-46
2022/03/01 00:10:34;;;;;;;26.10;23.50;;;;;;;0.45;84.02;103136.41;5054160;28;20936;-43
2022/03/01 00:13:02;;;;;;;27.30;24.40;;;;;;;0.44;84.18;103134.72;5054157;28;20431;-45
2022/03/01 00:15:30;;;;;;;26.77;22.03;;;;;;;0.45;84.69;103139.03;5053635;28;20471;-47
2022/03/01 00:17:58;;;;;;;28.80;23.80;;;;;;;0.45;84.39;103139.03;5054051;28;20851;-50
2022/03/01 00:20:26;;;;;;;30.10;24.73;;;;;;;0.44;84.65;103136.47;5054176;28;20438;-46
2022/03/01 00:22:53;;;;;;;27.30;24.43;;;;;;;0.43;84.34;103132.16;5054177;28;20553;-43
2022/03/01 00:25:21;;;;;;;28.90;23.37;;;;;;;0.41;84.50;103131.38;5053583;28;20546;-46
2022/03/01 00:27:50;;;;;;;28.53;24.03;;;;;;;0.39;84.63;103125.34;5053800;28;20481;-45
2022/03/01 00:30:17;;;;;;;26.87;22.80;;;;;;;0.36;83.92;103121.09;5053970;28;20525;-47
2022/03/01 00:32:47;;;;;;;29.13;23.40;;;;;;;0.36;84.63;103125.50;5054021;28;20427;-49
2022/03/01 00:35:14;;;;;;;28.03;25.03;;;;;;;0.34;84.49;103128.19;5053584;28;20470;-48
2022/03/01 00:37:42;;;;;;;29.97;25.50;;;;;;;0.34;84.62;103124.72;5053532;28;20435;-44
2022/03/01 00:40:10;;;;;;;28.63;25.03;;;;;;;0.31;84.73;103128.34;5053712;28;20789;-45
2022/03/01 00:42:40;;;;;;;31.00;24.93;;;;;;;0.33;85.07;103125.66;5053769;28;20474;-45
2022/03/01 00:45:10;;;;;;;30.17;24.07;;;;;;;0.34;85.21;103137.84;5052183;28;20463;-46
2022/03/01 00:47:38;;;;;;;26.37;23.63;;;;;;;0.32;84.35;103126.56;5053376;28;20802;-46
2022/03/01 00:50:06;;;;;;;26.13;23.60;;;;;;;0.31;84.59;103130.09;5053681;28;20989;-45
2022/03/01 00:52:34;;;;;;;27.47;23.57;;;;;;;0.30;85.33;103124.00;5053426;28;20428;-47
2022/03/01 00:55:02;;;;;;;30.60;23.73;;;;;;;0.30;84.59;103133.66;5052588;28;20489;-45
2022/03/01 00:57:29;;;;;;;26.43;23.67;;;;;;;0.29;85.01;103114.44;5053196;28;20438;-51
2022/03/01 00:59:57;;;;;;;24.77;22.20;;;;;;;0.28;84.87;103117.97;5053617;28;20501;-45
2022/03/01 01:02:26;;;;;;;27.33;24.40;;;;;;;0.28;85.40;103115.34;5053220;28;20437;-47
2022/03/01 01:04:54;;;;;;;26.03;23.23;;;;;;;0.28;85.30;103114.50;5052693;28;20529;-47
2022/03/01 01:07:21;;;;;;;26.30;23.57;;;;;;;0.28;86.02;103115.34;5053171;28;20435;-51
2022/03/01 01:09:49;;;;;;;24.40;22.03;;;;;;;0.28;85.72;103111.88;5053066;28;20459;-47
2022/03/01 01:12:17;;;;;;;26.87;23.97;;;;;;;0.29;85.76;103116.22;5053123;28;20434;-48
2022/03/01 01:14:44;;;;;;;39.80;25.47;;;;;;;0.27;86.11;103113.66;5052574;28;20463;-48
2022/03/01 01:17:12;;;;;;;25.37;22.57;;;;;;;0.25;86.44;103118.13;5052694;28;20438;-43
2022/03/01 01:19:41;;;;;;;25.50;22.90;;;;;;;0.25;85.91;103128.63;5052705;28;20455;-46
2022/03/01 01:24:56;;;;;;;28.43;25.50;;;;;;;0.21;85.61;103124.44;5052359;28;20473;-47
2022/03/01 01:27:24;;;;;;;25.90;23.20;;;;;;;0.19;85.03;103120.19;5052320;28;20936;-46
2022/03/01 01:29:52;;;;;;;25.13;22.00;;;;;;;0.17;85.47;103109.78;5052479;28;20443;-47
2022/03/01 01:32:19;;;;;;;29.73;24.50;;;;;;;0.14;85.47;103102.03;5052344;28;20447;-45
2022/03/01 01:34:49;;;;;;;27.50;23.17;;;;;;;0.14;85.28;103093.31;5051841;28;20550;-46
2022/03/01 01:37:17;;;;;;;26.93;22.23;;;;;;;0.12;85.65;103096.00;5052313;28;20594;-50
2022/03/01 01:39:44;;;;;;;31.27;23.90;;;;;;;0.12;86.33;103096.00;5052436;28;20538;-45
2022/03/01 01:42:12;;;;;;;29.10;23.10;;;;;;;0.13;85.82;103088.97;5052538;28;20523;-46
2022/03/01 01:44:40;;;;;;;26.57;21.60;;;;;;;0.11;85.62;103090.84;5051669;28;20565;-47
2022/03/01 01:47:27;;;;;;;26.17;22.90;;;;;;;0.09;85.86;103080.41;5052336;28;20427;-43
2022/03/01 01:49:56;;;;;;;25.90;22.23;;;;;;;0.07;85.65;103086.66;5052400;28;20836;-48
2022/03/01 01:52:25;;;;;;;26.50;21.90;;;;;;;0.03;85.96;103080.69;5052425;28;20506;-46
2022/03/01 01:54:53;;;;;;;24.70;22.07;;;;;;;0.02;85.69;103083.41;5051793;28;20463;-47
2022/03/01 01:57:24;;;;;;;29.10;23.37;;;;;;;-0.02;85.09;103075.69;5052240;28;20431;-43
2022/03/01 01:59:54;;;;;;;26.63;22.10;;;;;;;-0.03;85.35;103065.28;5052270;28;20469;-43
2022/03/01 02:02:25;;;;;;;24.63;22.03;;;;;;;-0.06;85.23;103066.25;5052336;28;20431;-46
2022/03/01 02:04:53;;;;;;;25.57;22.20;;;;;;;-0.08;84.93;103069.84;5051553;28;20517;-47
2022/03/01 02:07:22;;;;;;;22.70;20.40;;;;;;;-0.10;85.01;103061.22;5051060;28;20836;-46
2022/03/01 02:09:49;;;;;;;23.43;21.10;;;;;;;-0.06;85.41;103065.41;5052358;28;20811;-46
2022/03/01 02:12:17;;;;;;;25.10;21.57;;;;;;;-0.05;85.77;103056.59;5052262;28;20457;-48
2022/03/01 02:14:45;;;;;;;23.83;21.53;;;;;;;-0.02;85.77;103059.09;5051738;28;20527;-48
2022/03/01 02:17:13;;;;;;;23.37;21.10;;;;;;;0.01;85.25;103056.31;5051698;28;20932;-45
2022/03/01 02:19:47;;;;;;;24.37;21.77;;;;;;;0.02;85.31;103060.66;5052101;28;20455;-45
2022/03/01 02:22:17;;;;;;;23.63;21.33;;;;;;;0.02;84.43;103058.03;5051929;28;21302;-46
2022/03/01 02:24:45;;;;;;;23.53;21.37;;;;;;;0.02;84.36;103067.66;5051488;28;20467;-46
2022/03/01 02:27:13;;;;;;;23.60;21.20;;;;;;;0.02;84.22;103068.53;5051954;28;20804;-44
2022/03/01 02:29:41;;;;;;;25.00;22.30;;;;;;;-0.02;84.06;103062.56;5052197;28;20832;-47
2022/03/01 02:32:10;;;;;;;24.80;22.30;;;;;;;-0.02;84.20;103062.56;5052112;28;20434;-46
2022/03/01 02:34:38;;;;;;;23.60;21.43;;;;;;;-0.01;83.49;103058.16;5051353;28;20459;-49
2022/03/01 02:37:06;;;;;;;23.63;21.50;;;;;;;-0.01;83.60;103056.41;5051988;28;20438;-45
2022/03/01 02:39:35;;;;;;;23.20;20.77;;;;;;;-0.02;83.68;103051.22;5051966;28;20864;-46
2022/03/01 02:42:03;;;;;;;25.80;21.53;;;;;;;-0.02;82.96;103049.44;5051996;28;20533;-44
2022/03/01 02:44:31;;;;;;;24.40;21.90;;;;;;;-0.03;82.95;103057.41;5050331;28;20459;-46
2022/03/01 02:46:58;;;;;;;24.53;22.30;;;;;;;-0.02;83.01;103044.19;5051579;28;20921;-45
2022/03/01 02:49:26;;;;;;;25.47;20.70;;;;;;;-0.01;82.70;103051.16;5051501;28;20459;-46
2022/03/01 02:51:54;;;;;;;25.63;22.07;;;;;;;0.00;82.44;103047.59;5051874;28;20435;-46
2022/03/01 02:54:21;;;;;;;22.87;20.60;;;;;;;-0.02;82.49;103049.44;5051534;28;20459;-49
2022/03/01 02:56:50;;;;;;;24.57;21.63;;;;;;;-0.02;81.79;103052.06;5051824;28;20427;-45
2022/03/01 02:59:18;;;;;;;24.30;21.70;;;;;;;-0.04;82.11;103063.56;5051539;28;20461;-46
2022/03/01 03:01:46;;;;;;;23.77;21.27;;;;;;;-0.06;81.96;103086.41;5051686;28;20513;-50
2022/03/01 03:04:13;;;;;;;22.80;20.60;;;;;;;-0.09;82.40;103084.75;5050984;28;21007;-43
2022/03/01 03:06:43;;;;;;;23.83;21.53;;;;;;;-0.08;82.46;103078.59;5051492;28;20928;-48
2022/03/01 03:09:10;;;;;;;24.93;21.67;;;;;;;-0.09;81.64;103089.97;5051384;28;20537;-45
2022/03/01 03:11:38;;;;;;;23.50;21.07;;;;;;;-0.09;82.28;103092.59;5051558;28;20431;-47
2022/03/01 03:14:07;;;;;;;23.00;20.80;;;;;;;-0.09;81.64;103083.91;5051047;28;20995;-45
2022/03/01 03:16:35;;;;;;;23.50;21.43;;;;;;;-0.12;81.79;103086.69;5051593;28;20530;-47
2022/03/01 03:19:03;;;;;;;22.70;20.47;;;;;;;-0.15;82.20;103073.72;5052932;28;20968;-47
2022/03/01 03:21:30;;;;;;;22.13;20.13;;;;;;;-0.15;82.36;103077.16;5055314;28;20481;-46
2022/03/01 03:23:58;;;;;;;24.53;22.03;;;;;;;-0.15;81.63;103065.84;5054780;28;20478;-51
2022/03/01 03:26:26;;;;;;;23.10;20.83;;;;;;;-0.17;82.07;103065.91;5055230;28;20435;-49
2022/03/01 03:28:53;;;;;;;24.77;22.40;;;;;;;-0.20;81.53;103068.66;5054543;28;20509;-45
2022/03/01 03:31:22;;;;;;;24.87;22.33;;;;;;;-0.22;81.55;103067.03;5055190;28;20438;-48
2022/03/01 03:33:51;;;;;;;23.27;21.07;;;;;;;-0.26;81.14;103065.47;5054589;28;20455;-45
2022/03/01 03:36:18;;;;;;;22.90;20.80;;;;;;;-0.29;81.38;103060.34;5055135;28;20431;-49
2022/03/01 03:38:46;;;;;;;25.97;23.17;;;;;;;-0.34;81.92;103057.09;5054571;28;20459;-43
2022/03/01 03:41:14;;;;;;;24.70;22.27;;;;;;;-0.38;81.48;103053.75;5054749;28;20906;-46
2022/03/01 03:43:42;;;;;;;24.50;21.60;;;;;;;-0.40;81.81;103054.75;5054447;28;20466;-50
2022/03/01 03:46:09;;;;;;;24.23;22.17;;;;;;;-0.44;81.29;103051.44;5054840;28;20441;-47
2022/03/01 03:48:38;;;;;;;23.07;20.53;;;;;;;-0.46;81.06;103057.66;5054430;28;20455;-48
2022/03/01 03:51:06;;;;;;;23.03;20.60;;;;;;;-0.49;81.48;103047.31;5054822;28;20525;-47
2022/03/01 03:53:33;;;;;;;23.47;21.20;;;;;;;-0.52;81.70;103050.06;5054206;28;20477;-46
2022/03/01 03:56:01;;;;;;;23.07;20.83;;;;;;;-0.57;81.43;103045.06;5054721;28;20780;-46
2022/03/01 03:58:29;;;;;;;23.40;20.73;;;;;;;-0.62;80.99;103054.88;5054572;28;20453;-46
2022/03/01 04:00:56;;;;;;;24.43;21.00;;;;;;;-0.66;81.32;103043.66;5054670;28;20437;-43
2022/03/01 04:03:24;;;;;;;23.57;21.07;;;;;;;-0.68;82.20;103040.28;5054359;28;20431;-46
2022/03/01 04:05:53;;;;;;;25.10;22.23;;;;;;;-0.70;82.23;103044.75;5053690;28;20560;-46
2022/03/01 04:08:21;;;;;;;25.13;21.73;;;;;;;-0.73;82.37;103039.63;5053975;28;20452;-45
2022/03/01 04:10:49;;;;;;;22.90;20.80;;;;;;;-0.73;82.11;103034.41;5054485;28;20435;-46
2022/03/01 04:13:16;;;;;;;22.83;20.23;;;;;;;-0.74;82.65;103026.59;5054063;28;20800;-50
2022/03/01 04:15:44;;;;;;;23.10;21.00;;;;;;;-0.77;82.20;103026.72;5054224;28;20897;-46
2022/03/01 04:18:11;;;;;;;22.47;20.10;;;;;;;-0.78;82.87;103017.19;5054034;28;20538;-46
2022/03/01 04:20:39;;;;;;;25.23;21.83;;;;;;;-0.82;82.80;103010.38;5054234;28;20449;-48
2022/03/01 04:23:09;;;;;;;21.93;19.60;;;;;;;-0.82;82.86;103010.38;5053865;28;20431;-47
2022/03/01 04:25:36;;;;;;;26.90;21.80;;;;;;;-0.81;82.87;103010.31;5053493;28;20482;-51
2022/03/01 04:28:05;;;;;;;25.47;21.63;;;;;;;-0.79;83.69;103018.94;5050529;28;20463;-44
2022/03/01 04:30:33;;;;;;;23.73;21.40;;;;;;;-0.78;83.06;103014.56;5053095;28;20438;-45
2022/03/01 04:33:01;;;;;;;24.30;21.80;;;;;;;-0.76;83.80;103016.19;5054010;28;20796;-46
2022/03/01 04:35:28;;;;;;;33.60;24.87;;;;;;;-0.76;83.02;103008.34;5053476;28;20463;-46
2022/03/01 04:37:56;;;;;;;24.10;20.10;;;;;;;-0.74;83.24;103011.72;5053487;28;20969;-46
2022/03/01 04:40:25;;;;;;;27.00;21.17;;;;;;;-0.75;83.09;103012.66;5053945;28;20469;-48
2022/03/01 04:42:52;;;;;;;20.67;18.70;;;;;;;-0.72;82.81;103016.91;5053717;28;20435;-49
2022/03/01 04:45:20;;;;;;;21.50;19.40;;;;;;;-0.71;83.51;103008.97;5052005;28;20475;-46
2022/03/01 04:47:48;;;;;;;22.63;20.43;;;;;;;-0.68;83.36;103006.22;5053189;28;20452;-46
2022/03/01 04:50:16;;;;;;;24.17;21.63;;;;;;;-0.66;82.68;102999.13;5053271;28;20435;-49
2022/03/01 04:52:45;;;;;;;21.67;19.63;;;;;;;-0.65;82.40;103005.22;5053645;28;20519;-46
2022/03/01 04:55:13;;;;;;;23.23;20.80;;;;;;;-0.61;82.53;103002.41;5052995;28;20884;-46
2022/03/01 04:57:43;;;;;;;23.00;20.77;;;;;;;-0.57;81.59;102992.63;5053060;28;20920;-43
2022/03/01 05:00:12;;;;;;;23.00;20.63;;;;;;;-0.55;82.02;102998.66;5053351;28;20542;-46
2022/03/01 05:02:41;;;;;;;22.70;20.57;;;;;;;-0.56;81.31;103003.03;5053155;28;20924;-44
2022/03/01 05:05:11;;;;;;;22.73;20.50;;;;;;;-0.53;81.31;103003.81;5052583;28;20992;-47
2022/03/01 05:07:39;;;;;;;22.60;20.70;;;;;;;-0.52;81.52;103000.28;5053056;28;20436;-45
2022/03/01 05:10:08;;;;;;;22.73;20.30;;;;;;;-0.51;80.50;102999.38;5052990;28;20518;-49
2022/03/01 05:12:45;;;;;;;22.40;20.30;;;;;;;-0.49;80.09;102994.91;5051853;28;20427;-46
2022/03/01 05:15:14;;;;;;;22.70;19.47;;;;;;;-0.50;79.91;102990.56;5052403;28;20459;-43
2022/03/01 05:17:42;;;;;;;22.77;20.50;;;;;;;-0.50;80.03;102987.94;5052951;28;20431;-49
2022/03/01 05:20:11;;;;;;;22.87;20.83;;;;;;;-0.51;79.62;102996.75;5052742;28;20447;-46
2022/03/01 05:22:39;;;;;;;21.07;19.07;;;;;;;-0.50;80.07;103001.03;5052863;28;20522;-46
2022/03/01 05:25:09;;;;;;;20.97;18.80;;;;;;;-0.49;79.76;103002.75;5052254;28;20475;-47
2022/03/01 05:27:37;;;;;;;22.90;20.87;;;;;;;-0.51;79.68;102996.75;5051749;28;20531;-50
2022/03/01 05:30:09;;;;;;;22.97;20.63;;;;;;;-0.52;79.33;103008.13;5053078;28;20439;-46
2022/03/01 05:32:40;;;;;;;22.70;20.43;;;;;;;-0.53;78.69;102981.06;5052915;28;20431;-49
2022/03/01 05:35:10;;;;;;;22.87;20.47;;;;;;;-0.52;78.55;102982.78;5052193;28;20830;-47
2022/03/01 05:37:41;;;;;;;24.23;21.67;;;;;;;-0.54;78.91;102981.16;5052327;28;20431;-49
2022/03/01 05:40:12;;;;;;;21.80;19.67;;;;;;;-0.53;78.88;102985.47;5051984;28;20431;-49
2022/03/01 05:42:42;;;;;;;23.37;20.80;;;;;;;-0.54;78.69;102986.41;5052617;28;20790;-47
2022/03/01 05:45:12;;;;;;;21.50;19.30;;;;;;;-0.56;78.59;102982.06;5051875;28;20479;-44
2022/03/01 05:47:40;;;;;;;22.57;20.37;;;;;;;-0.56;78.72;102984.69;5052483;28;20817;-46
2022/03/01 05:50:09;;;;;;;24.20;20.53;;;;;;;-0.56;78.42;102989.94;5052464;28;20620;-49
2022/03/01 05:52:41;;;;;;;21.60;19.60;;;;;;;-0.56;78.66;102981.22;5052396;28;20475;-50
2022/03/01 05:55:11;;;;;;;23.20;20.87;;;;;;;-0.55;77.95;102967.19;5051381;28;20466;-49
2022/03/01 05:57:39;;;;;;;22.60;20.50;;;;;;;-0.52;78.12;102972.31;5052146;28;20437;-45
2022/03/01 06:00:12;;;;;;;21.63;19.93;;;;;;;-0.47;78.52;102979.94;5052667;28;20443;-47
2022/03/01 06:02:40;;;;;;;21.23;19.23;;;;;;;-0.45;78.42;102975.50;5052438;28;20507;-45
2022/03/01 06:05:09;;;;;;;23.77;21.77;;;;;;;-0.43;77.87;102987.59;5051823;28;20857;-44
2022/03/01 06:07:37;;;;;;;22.97;20.77;;;;;;;-0.41;77.26;102991.00;5051901;28;20522;-45
2022/03/01 06:10:06;;;;;;;23.37;21.13;;;;;;;-0.39;77.47;102989.19;5052444;28;20534;-52
2022/03/01 06:12:35;;;;;;;22.83;20.70;;;;;;;-0.37;77.49;102989.94;5052712;28;20519;-43
2022/03/01 06:15:03;;;;;;;23.43;21.03;;;;;;;-0.33;77.71;102983.63;5051768;28;20474;-46
2022/03/01 06:17:32;;;;;;;24.00;21.70;;;;;;;-0.30;77.97;102986.09;5051606;28;20429;-43
2022/03/01 06:20:01;;;;;;;25.57;22.90;;;;;;;-0.27;76.94;102993.81;5049480;28;21022;-48
2022/03/01 06:22:29;;;;;;;24.03;21.63;;;;;;;-0.26;76.78;102990.28;5050984;28;20543;-46
2022/03/01 06:24:57;;;;;;;23.73;21.13;;;;;;;-0.24;77.21;103001.53;5050905;28;20473;-44
2022/03/01 06:27:25;;;;;;;24.17;22.10;;;;;;;-0.18;77.24;102993.38;5051464;28;20896;-44
2022/03/01 06:29:53;;;;;;;22.97;20.80;;;;;;;-0.11;76.23;102993.94;5051548;28;20944;-46
2022/03/01 06:32:22;;;;;;;25.20;22.70;;;;;;;-0.05;76.41;103001.53;5051676;28;20431;-48
2022/03/01 06:34:51;;;;;;;23.43;21.23;;;;;;;0.00;75.66;102995.13;5051386;28;20491;-50
2022/03/01 06:37:35;;;;;;;22.70;20.70;;;;;;;0.12;75.62;102995.47;5051708;28;20430;-47
2022/03/01 06:40:06;;;;;;;24.77;22.17;;;;;;;0.22;75.41;102994.09;5051745;28;20439;-49
2022/03/01 06:42:34;;;;;;;25.63;23.00;;;;;;;0.34;74.66;103003.97;5051735;28;20442;-50
2022/03/01 06:45:02;;;;;;;23.40;21.20;;;;;;;0.45;75.30;102999.03;5051303;28;20562;-44
2022/03/01 06:47:30;;;;;;;25.10;22.70;;;;;;;0.56;74.14;103002.00;5051379;28;21043;-48
2022/03/01 06:50:00;;;;;;;22.33;20.50;;;;;;;0.69;74.09;103002.25;5051688;28;20525;-50
2022/03/01 06:52:28;;;;;;;26.27;23.07;;;;;;;0.77;73.22;103000.06;5051915;28;20493;-49
2022/03/01 06:54:56;;;;;;;22.73;20.90;;;;;;;0.89;73.39;102989.78;5054895;28;20469;-47
2022/03/01 06:57:23;;;;;;;23.83;21.63;;;;;;;1.01;72.91;102980.41;5055737;28;20457;-48
2022/03/01 06:59:53;;;;;;;21.73;19.47;;;;;;;1.08;71.97;102985.25;5056047;28;21030;-46
2022/03/01 07:02:21;;;;;;;21.13;19.20;;;;;;;1.18;71.70;102990.88;5055747;28;20431;-52
2022/03/01 07:04:49;;;;;;;21.63;18.43;;;;;;;1.28;70.77;102992.09;5055473;28;20450;-50
2022/03/01 07:07:18;;;;;;;22.17;20.07;;;;;;;1.40;70.91;102995.84;5054408;28;20524;-51
2022/03/01 07:09:45;;;;;;;22.40;19.93;;;;;;;1.50;69.92;102992.59;5055446;28;20925;-47
2022/03/01 07:12:13;;;;;;;18.60;16.70;;;;;;;1.62;69.81;102989.31;5055410;28;20948;-50
2022/03/01 07:14:41;;;;;;;19.50;16.03;;;;;;;1.63;68.62;102985.75;5054870;28;20955;-47
2022/03/01 07:17:08;;;;;;;18.40;16.23;;;;;;;1.80;69.27;102986.59;5055471;28;20435;-52
2022/03/01 07:19:36;;;;;;;19.80;15.93;;;;;;;1.89;68.30;102984.28;5055276;28;20470;-45
2022/03/01 07:22:04;;;;;;;18.77;14.73;;;;;;;1.98;67.67;102985.56;5055217;28;20537;-49
2022/03/01 07:24:33;;;;;;;19.87;16.27;;;;;;;2.16;67.33;102985.38;5054871;28;20467;-52
2022/03/01 07:27:00;;;;;;;19.40;16.93;;;;;;;2.39;67.37;102993.75;5055105;28;20562;-47
2022/03/01 07:29:30;;;;;;;18.97;16.53;;;;;;;2.75;67.52;102999.47;5054665;28;20463;-49
2022/03/01 07:31:58;;;;;;;19.00;14.80;;;;;;;2.96;65.39;102997.31;5054743;28;20529;-52
2022/03/01 07:34:26;;;;;;;17.93;16.13;;;;;;;3.26;65.98;102995.47;5054401;28;20550;-54
2022/03/01 07:36:54;;;;;;;19.60;17.60;;;;;;;3.29;63.43;102995.25;5054786;28;20427;-49
2022/03/01 07:39:22;;;;;;;18.40;16.40;;;;;;;3.39;63.71;102999.03;5054436;28;20553;-50
2022/03/01 07:41:51;;;;;;;22.13;15.93;;;;;;;3.52;63.81;102991.22;5054723;28;20516;-51
2022/03/01 07:44:20;;;;;;;20.10;16.67;;;;;;;3.47;63.46;102988.84;5054207;28;20464;-51
2022/03/01 07:46:50;;;;;;;20.80;15.77;;;;;;;3.30;62.09;102984.63;5054525;28;20552;-52
2022/03/01 07:49:18;;;;;;;24.80;17.57;;;;;;;3.22;62.32;102978.16;5054349;28;20576;-49
2022/03/01 07:51:46;;;;;;;17.70;15.57;;;;;;;3.24;62.64;102974.47;5054857;28;20437;-48
2022/03/01 07:54:14;;;;;;;18.53;15.13;;;;;;;3.18;62.32;102979.28;5054062;28;20554;-44
2022/03/01 07:56:42;;;;;;;22.60;16.03;;;;;;;3.17;63.10;102981.06;5054545;28;20797;-48
2022/03/01 07:59:11;;;;;;;17.93;16.03;;;;;;;3.10;63.33;102990.31;5054183;28;20463;-51
2022/03/01 08:01:39;;;;;;;18.53;15.50;;;;;;;3.08;63.39;103000.06;5054314;28;20877;-44
2022/03/01 08:04:07;;;;;;;18.23;15.03;;;;;;;3.11;63.71;103001.66;5053837;28;20463;-46
2022/03/01 08:06:34;;;;;;;17.97;15.10;;;;;;;3.01;63.28;102998.75;5053391;28;20479;-48
2022/03/01 08:09:05;;;;;;;22.90;15.47;;;;;;;3.02;63.12;103004.84;5054179;28;20468;-49
2022/03/01 08:11:32;;;;;;;19.20;15.67;;;;;;;3.02;63.49;103010.13;5054319;28;20432;-46
2022/03/01 08:14:00;;;;;;;24.60;16.10;;;;;;;3.03;63.87;103012.69;5053821;28;20477;-46
2022/03/01 08:16:29;;;;;;;17.27;14.60;;;;;;;3.05;63.78;103010.81;5054097;28;20526;-47
2022/03/01 08:18:57;;;;;;;20.40;15.37;;;;;;;3.14;64.64;103012.03;5054218;28;20455;-47
2022/03/01 08:21:24;;;;;;;21.20;14.60;;;;;;;3.18;63.58;103010.91;5054410;28;20433;-46
2022/03/01 08:23:53;;;;;;;18.10;16.03;;;;;;;3.26;63.58;103008.63;5053951;28;20470;-48
2022/03/01 08:26:20;;;;;;;20.70;15.23;;;;;;;3.33;63.77;103010.81;5053859;28;20427;-49
2022/03/01 08:28:48;;;;;;;17.90;14.60;;;;;;;3.41;63.80;103018.25;5053573;28;20582;-50
2022/03/01 08:31:15;;;;;;;20.83;16.87;;;;;;;3.45;63.47;103019.75;5067306;22;20519;-43
2022/03/01 08:33:46;;;;;;;21.90;15.37;;;;;;;3.40;63.00;103018.34;5033261;28;20539;-43
2022/03/01 08:36:17;;;;;;;19.63;14.53;;;;;;;3.53;63.94;103024.53;5033916;28;20431;-42
2022/03/01 08:38:45;;;;;;;17.87;14.20;;;;;;;3.67;63.40;103028.03;5033696;28;20483;-44
2022/03/01 08:41:13;;;;;;;18.40;14.93;;;;;;;3.80;63.19;103031.59;5033661;28;20452;-43
2022/03/01 08:43:40;;;;;;;21.73;16.03;;;;;;;3.79;62.69;103032.53;5032324;28;20866;-43
2022/03/01 08:46:10;;;;;;;18.30;14.80;;;;;;;3.90;62.58;103024.78;5033543;28;21186;-44
2022/03/01 08:48:38;;;;;;;16.17;14.00;;;;;;;4.00;62.84;103032.97;5033473;28;20840;-43
2022/03/01 08:51:09;;;;;;;17.03;13.80;;;;;;;4.12;62.68;103033.97;5033588;28;20841;-43
2022/03/01 08:53:37;;;;;;;17.90;13.93;;;;;;;4.19;61.94;103033.47;5032979;28;20463;-44
2022/03/01 08:56:05;;;;;;;15.67;14.07;;;;;;;4.45;62.25;103029.97;5033338;28;20511;-43
2022/03/01 08:58:33;;;;;;;17.77;13.87;;;;;;;4.62;61.40;103028.00;5033123;28;20438;-47
2022/03/01 09:01:02;;;;;;;17.90;15.37;;;;;;;4.83;60.54;103022.13;5033409;28;20463;-43
2022/03/01 09:03:30;;;;;;;21.90;16.23;;;;;;;4.92;59.04;103010.94;5032608;28;20456;-43
2022/03/01 09:06:13;;;;;;;18.37;15.33;;;;;;;4.96;59.09;103003.59;5033174;28;20435;-46
2022/03/01 09:08:41;;;;;;;20.60;15.30;;;;;;;4.84;57.87;103000.00;5032929;28;20486;-45
2022/03/01 09:11:10;;;;;;;22.17;15.37;;;;;;;4.92;59.00;102988.94;5033319;28;20452;-46
2022/03/01 09:13:38;;;;;;;20.47;16.33;;;;;;;4.92;58.74;102983.63;5032738;28;20547;-43
2022/03/01 09:16:06;;;;;;;21.63;16.17;;;;;;;4.98;59.03;102983.22;5032818;28;20429;-43
2022/03/01 09:18:35;;;;;;;18.30;15.30;;;;;;;4.96;58.27;102988.59;5032802;28;20434;-43
2022/03/01 09:21:03;;;;;;;17.53;15.73;;;;;;;4.90;58.20;102986.38;5032927;28;20547;-43
2022/03/01 09:23:32;;;;;;;19.70;15.30;;;;;;;4.87;58.08;102983.09;5032623;28;20452;-42
2022/03/01 09:26:00;;;;;;;18.13;15.50;;;;;;;5.00;59.11;102970.72;5032997;28;20520;-43
2022/03/01 09:28:31;;;;;;;17.53;13.90;;;;;;;5.08;58.95;102976.31;5032614;28;20480;-43
2022/03/01 09:30:59;;;;;;;20.67;14.57;;;;;;;5.21;58.49;102976.31;5032711;28;20464;-44
2022/03/01 09:33:27;;;;;;;17.40;15.50;;;;;;;5.39;58.94;102973.22;5032177;28;20514;-43
2022/03/01 09:35:54;;;;;;;19.77;15.27;;;;;;;5.50;57.54;102973.31;5033093;28;20792;-43
2022/03/01 09:38:24;;;;;;;15.07;13.30;;;;;;;5.83;57.60;102970.03;5032601;28;20538;-45
2022/03/01 09:40:53;;;;;;;16.90;14.67;;;;;;;6.03;56.15;102955.38;5032643;28;20488;-45
2022/03/01 09:43:21;;;;;;;16.97;14.40;;;;;;;6.23;56.17;102967.97;5032106;28;20432;-44
2022/03/01 09:45:48;;;;;;;20.23;14.60;;;;;;;6.45;56.29;102961.91;5032194;28;20436;-43
2022/03/01 09:48:16;;;;;;;23.97;15.90;;;;;;;6.46;55.30;102968.88;5032245;28;21001;-46
2022/03/01 09:50:47;;;;;;;15.83;14.23;;;;;;;6.60;53.29;102966.06;5032531;28;20551;-43
2022/03/01 09:53:15;;;;;;;19.80;14.63;;;;;;;6.64;55.42;102962.19;5032182;28;20515;-44
2022/03/01 09:55:42;;;;;;;19.33;15.40;;;;;;;6.68;54.45;102963.66;5032449;28;20444;-44
2022/03/01 09:58:11;;;;;;;18.17;15.60;;;;;;;6.78;54.21;102961.16;5031997;28;20432;-45
2022/03/01 10:00:39;;;;;;;18.63;14.30;;;;;;;7.00;54.24;102958.50;5032135;28;20542;-43
2022/03/01 10:03:08;;;;;;;22.63;16.30;;;;;;;7.17;54.42;102958.88;5032447;28;20526;-44
2022/03/01 10:05:38;;;;;;;19.20;16.03;;;;;;;7.10;52.71;102962.16;5032036;28;20448;-44
2022/03/01 10:08:08;;;;;;;22.50;15.30;;;;;;;7.30;54.18;102969.38;5031986;28;20476;-44
2022/03/01 10:10:41;;;;;;;20.37;16.20;;;;;;;7.44;53.80;102958.50;5032123;28;20459;-43
2022/03/01 10:13:10;;;;;;;16.50;14.77;;;;;;;7.43;52.59;102961.28;5032010;28;20425;-47
2022/03/01 10:15:41;;;;;;;20.63;14.97;;;;;;;7.56;53.62;102970.78;5031952;28;20447;-43
2022/03/01 10:18:14;;;;;;;18.53;14.43;;;;;;;7.60;54.39;102979.38;5031840;28;20435;-44
2022/03/01 10:20:45;;;;;;;16.83;14.83;;;;;;;7.60;52.49;102982.03;5029284;28;20543;-44
2022/03/01 10:23:14;;;;;;;16.97;14.70;;;;;;;7.63;51.91;102989.75;5029050;28;20519;-44
2022/03/01 10:25:42;;;;;;;23.10;15.17;;;;;;;7.58;51.92;102976.84;5031274;28;20432;-43
2022/03/01 10:28:11;;;;;;;21.47;15.87;;;;;;;7.56;52.11;102986.72;5031062;28;20476;-43
2022/03/01 10:30:41;;;;;;;15.80;14.17;;;;;;;7.62;53.00;102994.19;5031364;28;20563;-44
2022/03/01 10:33:11;;;;;;;20.30;15.50;;;;;;;7.49;53.22;102990.00;5030579;28;20463;-43
2022/03/01 10:35:40;;;;;;;17.93;16.00;;;;;;;7.58;54.33;102991.94;5030700;28;20846;-43
2022/03/01 10:38:09;;;;;;;17.97;15.90;;;;;;;7.62;53.51;102988.91;5030730;28;20432;-47
2022/03/01 10:40:38;;;;;;;16.97;15.20;;;;;;;7.60;53.70;102985.53;5030951;28;20464;-42
2022/03/01 10:43:09;;;;;;;16.10;14.60;;;;;;;7.58;53.22;102981.31;5030451;28;21008;-43
2022/03/01 10:45:42;;;;;;;17.57;15.57;;;;;;;7.57;53.81;102987.56;5029662;28;20487;-42
2022/03/01 10:48:12;;;;;;;18.33;15.53;;;;;;;7.51;53.28;102990.72;5010947;28;20504;-46
2022/03/01 10:50:41;;;;;;;17.30;15.30;;;;;;;7.55;55.06;102998.34;5011294;28;20457;-46
2022/03/01 10:53:09;;;;;;;19.50;15.50;;;;;;;7.55;54.23;103001.00;5010328;28;20911;-45
2022/03/01 10:55:38;;;;;;;16.43;14.17;;;;;;;7.59;54.12;102990.94;5010966;28;20445;-44
2022/03/01 10:58:12;;;;;;;21.43;16.10;;;;;;;7.51;53.97;102990.72;5011017;28;20524;-43
2022/03/01 11:00:41;;;;;;;18.03;16.13;;;;;;;7.52;53.98;102990.63;5011312;28;20461;-45
2022/03/01 11:03:09;;;;;;;21.07;15.70;;;;;;;7.56;53.99;102983.22;5010287;28;20444;-44
2022/03/01 11:05:38;;;;;;;20.37;17.10;;;;;;;7.65;55.33;102983.34;5010864;28;20780;-42
2022/03/01 11:08:32;;;;;;;17.27;15.47;;;;;;;7.71;54.03;102985.50;5010903;28;20465;-46
2022/03/01 11:11:02;;;;;;;21.47;16.50;;;;;;;7.73;53.97;102985.41;5011323;28;20492;-43
2022/03/01 11:13:31;;;;;;;24.33;17.37;;;;;;;7.70;53.60;102986.50;5009074;28;20437;-43
2022/03/01 11:16:48;;;;;;;18.00;16.20;;;;;;;7.78;54.19;102976.09;5024288;28;20507;-43
2022/03/01 11:19:41;;;;;;;18.30;15.93;;;;;;;7.83;54.13;102983.66;4975665;28;20509;-44
2022/03/01 11:22:20;;;;;;;17.50;15.70;;;;;;;7.91;54.26;102983.91;5010587;28;20449;-43
2022/03/01 11:24:49;;;;;;;20.10;16.20;;;;;;;8.00;53.65;102985.81;5017012;28;20510;-44